| Time | Avg. Air Temp | Dew Point | Avg. Rel Humidity | Avg. 2 Min Wind Speed | Max Gust Velocity | MGV Time | MGV Direction | Avg. Spot Wind Velocity |
|---|---|---|---|---|---|---|---|---|
| 2026-05-02 09:15:00 | 4° C | -3° C | 59% | 8 km/h | 11 km/h | 09:14:00 | N | 8 km/h |
| 08:15:00 | 3° C | -4° C | 61% | 9 km/h | 16 km/h | 08:14:00 | N | 6 km/h |
| 07:15:00 | 3° C | -4° C | 62% | 18 km/h | 18 km/h | 07:15:00 | NW | 17 km/h |
| 06:15:00 | 3° C | -3° C | 64% | 10 km/h | 14 km/h | 06:11:00 | W | 11 km/h |
| 05:15:00 | 3° C | -4° C | 59% | 13 km/h | 13 km/h | 05:11:00 | NW | 12 km/h |
| 04:15:00 | 4° C | -4° C | 61% | 10 km/h | 11 km/h | 04:14:00 | NW | 10 km/h |
| 03:15:00 | 4° C | -2° C | 64% | 7 km/h | 8 km/h | 03:11:00 | W | 7 km/h |
| 02:15:00 | 4° C | -2° C | 64% | 9 km/h | 9 km/h | 02:14:00 | SW | 9 km/h |
| 01:15:00 | 4° C | -2° C | 64% | 9 km/h | 9 km/h | 01:11:00 | SW | 9 km/h |
| 00:15:00 | 4° C | -3° C | 62% | 8 km/h | 9 km/h | 00:15:00 | S | 8 km/h |
| 23:15:00 | 4° C | -4° C | 57% | 4 km/h | 4 km/h | 23:11:00 | W | 4 km/h |
| 22:15:00 | 4° C | -3° C | 64% | 13 km/h | 14 km/h | 22:11:00 | NE | 13 km/h |
| 21:15:00 | 4° C | -2° C | 62% | 0 km/h | 1 km/h | 21:11:00 | N | 0 km/h |
| 20:15:00 | 4° C | -3° C | 61% | 5 km/h | 6 km/h | 20:14:00 | W | 5 km/h |
| 19:15:00 | 4° C | -3° C | 61% | 13 km/h | 14 km/h | 19:14:00 | SW | 12 km/h |
| 18:15:00 | 4° C | -3° C | 60% | 11 km/h | 13 km/h | 18:11:00 | SW | 10 km/h |
| 17:15:00 | 4° C | -3° C | 60% | 14 km/h | 15 km/h | 17:11:00 | SW | 13 km/h |
| 16:15:00 | 4° C | -3° C | 59% | 8 km/h | 9 km/h | 16:15:00 | SW | 7 km/h |
| 15:15:00 | 4° C | -2° C | 63% | 10 km/h | 11 km/h | 15:15:00 | S | 9 km/h |
| 14:15:00 | 5° C | -3° C | 58% | 7 km/h | 17 km/h | 14:12:00 | W | 8 km/h |
| 13:15:00 | 4° C | -3° C | 61% | 15 km/h | 19 km/h | 13:14:00 | SW | 13 km/h |
| 12:15:00 | 3° C | -3° C | 63% | 11 km/h | 14 km/h | 12:15:00 | S | 11 km/h |
| 11:15:00 | 4° C | -3° C | 60% | 9 km/h | 13 km/h | 11:12:00 | S | 12 km/h |
| 10:15:00 | 3° C | -4° C | 62% | 15 km/h | 19 km/h | 10:11:00 | S | 15 km/h |
Subpeak Weather
| Time | Avg. Air Temp | Dew Point | Avg. Rel Humidity | Avg. 2 Min Wind Speed | Max Gust Velocity | MGV Time | MGV Direction | Avg. Spot Wind Velocity |
|---|---|---|---|---|---|---|---|---|
| 2026-05-02 09:15:00 | 4° C | -3° C | 59% | 8 km/h | 11 km/h | 09:14:00 | N | 8 km/h |
| 09:10:00 | 4° C | -3° C | 61% | 3 km/h | 9 km/h | 09:06:00 | NE | 4 km/h |
| 09:05:00 | 4° C | -4° C | 60% | 7 km/h | 10 km/h | 09:04:00 | NE | 4 km/h |
| 09:00:00 | 3° C | -3° C | 63% | 4 km/h | 11 km/h | 09:00:00 | N | 3 km/h |
| 08:55:00 | 3° C | -3° C | 61% | 4 km/h | 11 km/h | 08:51:00 | E | 4 km/h |
| 08:50:00 | 4° C | -3° C | 60% | 5 km/h | 8 km/h | 08:50:00 | NE | 5 km/h |
| 08:45:00 | 3° C | -4° C | 60% | 3 km/h | 10 km/h | 08:41:00 | NW | 3 km/h |
| 08:40:00 | 3° C | -4° C | 60% | 7 km/h | 11 km/h | 08:39:00 | N | 4 km/h |
| 08:35:00 | 3° C | -4° C | 62% | 8 km/h | 11 km/h | 08:34:00 | NE | 5 km/h |
| 08:30:00 | 3° C | -3° C | 63% | 3 km/h | 13 km/h | 08:27:00 | N | 5 km/h |
| 08:25:00 | 3° C | -3° C | 63% | 10 km/h | 14 km/h | 08:24:00 | N | 8 km/h |
| 08:20:00 | 3° C | -3° C | 63% | 7 km/h | 12 km/h | 08:19:00 | N | 7 km/h |
| 08:15:00 | 3° C | -4° C | 61% | 9 km/h | 16 km/h | 08:14:00 | N | 6 km/h |




